sensor_id;sensor_type;location;lat;lon;timestamp;P1;durP1;ratioP1;P2;durP2;ratioP2
9508;SDS011;4792;50.088;8.122;2023-03-01T00:01:14;10.83;;;7.40;;
9508;SDS011;4792;50.088;8.122;2023-03-01T00:03:43;13.23;;;8.43;;
9508;SDS011;4792;50.088;8.122;2023-03-01T00:06:12;15.00;;;9.00;;
9508;SDS011;4792;50.088;8.122;2023-03-01T00:08:42;14.07;;;8.17;;
9508;SDS011;4792;50.088;8.122;2023-03-01T00:11:12;11.43;;;7.73;;
9508;SDS011;4792;50.088;8.122;2023-03-01T00:13:41;12.70;;;7.80;;
9508;SDS011;4792;50.088;8.122;2023-03-01T00:16:10;13.27;;;7.60;;
9508;SDS011;4792;50.088;8.122;2023-03-01T00:18:41;12.60;;;7.93;;
9508;SDS011;4792;50.088;8.122;2023-03-01T00:21:09;16.50;;;8.90;;
9508;SDS011;4792;50.088;8.122;2023-03-01T00:23:37;13.97;;;8.30;;
9508;SDS011;4792;50.088;8.122;2023-03-01T00:26:07;14.47;;;9.10;;
9508;SDS011;4792;50.088;8.122;2023-03-01T00:28:36;10.37;;;7.57;;
9508;SDS011;4792;50.088;8.122;2023-03-01T00:31:04;14.40;;;7.87;;
9508;SDS011;4792;50.088;8.122;2023-03-01T00:33:32;12.67;;;8.23;;
9508;SDS011;4792;50.088;8.122;2023-03-01T00:36:01;12.37;;;8.57;;
9508;SDS011;4792;50.088;8.122;2023-03-01T00:38:29;13.50;;;8.27;;
9508;SDS011;4792;50.088;8.122;2023-03-01T00:41:02;13.97;;;8.90;;
9508;SDS011;4792;50.088;8.122;2023-03-01T00:43:32;14.30;;;8.73;;
9508;SDS011;4792;50.088;8.122;2023-03-01T00:46:03;14.13;;;9.33;;
9508;SDS011;4792;50.088;8.122;2023-03-01T00:48:32;13.93;;;9.13;;
9508;SDS011;4792;50.088;8.122;2023-03-01T00:51:04;13.80;;;9.00;;
9508;SDS011;4792;50.088;8.122;2023-03-01T00:53:33;13.20;;;8.20;;
9508;SDS011;4792;50.088;8.122;2023-03-01T00:56:01;16.20;;;8.70;;
9508;SDS011;4792;50.088;8.122;2023-03-01T00:58:29;12.73;;;8.37;;
9508;SDS011;4792;50.088;8.122;2023-03-01T01:00:59;14.17;;;9.17;;
9508;SDS011;4792;50.088;8.122;2023-03-01T01:03:27;14.63;;;9.07;;
9508;SDS011;4792;50.088;8.122;2023-03-01T01:05:55;14.03;;;8.47;;
9508;SDS011;4792;50.088;8.122;2023-03-01T01:08:23;12.47;;;8.63;;
9508;SDS011;4792;50.088;8.122;2023-03-01T01:10:51;14.37;;;8.90;;
9508;SDS011;4792;50.088;8.122;2023-03-01T01:13:18;13.90;;;8.97;;
9508;SDS011;4792;50.088;8.122;2023-03-01T01:15:46;13.13;;;8.37;;
9508;SDS011;4792;50.088;8.122;2023-03-01T01:18:16;13.00;;;8.43;;
9508;SDS011;4792;50.088;8.122;2023-03-01T01:20:43;18.87;;;9.83;;
9508;SDS011;4792;50.088;8.122;2023-03-01T01:23:11;15.70;;;9.27;;
9508;SDS011;4792;50.088;8.122;2023-03-01T01:25:39;14.20;;;8.83;;
9508;SDS011;4792;50.088;8.122;2023-03-01T01:28:07;13.43;;;8.60;;
9508;SDS011;4792;50.088;8.122;2023-03-01T01:30:35;13.80;;;8.73;;
9508;SDS011;4792;50.088;8.122;2023-03-01T01:33:03;13.70;;;8.90;;
9508;SDS011;4792;50.088;8.122;2023-03-01T01:35:32;13.73;;;8.83;;
9508;SDS011;4792;50.088;8.122;2023-03-01T01:38:00;13.40;;;9.17;;
9508;SDS011;4792;50.088;8.122;2023-03-01T01:40:28;14.87;;;9.53;;
9508;SDS011;4792;50.088;8.122;2023-03-01T01:42:56;13.57;;;8.80;;
9508;SDS011;4792;50.088;8.122;2023-03-01T01:45:26;15.40;;;10.10;;
9508;SDS011;4792;50.088;8.122;2023-03-01T01:47:57;17.53;;;9.57;;
9508;SDS011;4792;50.088;8.122;2023-03-01T01:50:27;15.07;;;9.00;;
9508;SDS011;4792;50.088;8.122;2023-03-01T01:53:06;16.50;;;9.40;;
9508;SDS011;4792;50.088;8.122;2023-03-01T01:55:37;17.27;;;9.87;;
9508;SDS011;4792;50.088;8.122;2023-03-01T01:58:07;15.17;;;9.07;;
9508;SDS011;4792;50.088;8.122;2023-03-01T02:00:36;14.00;;;8.43;;
9508;SDS011;4792;50.088;8.122;2023-03-01T02:03:06;14.93;;;8.93;;
9508;SDS011;4792;50.088;8.122;2023-03-01T02:05:38;16.10;;;9.57;;
9508;SDS011;4792;50.088;8.122;2023-03-01T02:08:11;14.70;;;9.60;;
9508;SDS011;4792;50.088;8.122;2023-03-01T02:10:40;15.63;;;9.37;;
9508;SDS011;4792;50.088;8.122;2023-03-01T02:13:08;15.90;;;9.40;;
9508;SDS011;4792;50.088;8.122;2023-03-01T02:15:37;16.73;;;9.97;;
9508;SDS011;4792;50.088;8.122;2023-03-01T02:18:06;16.00;;;9.90;;
9508;SDS011;4792;50.088;8.122;2023-03-01T02:20:35;14.50;;;9.40;;
9508;SDS011;4792;50.088;8.122;2023-03-01T02:23:14;13.00;;;9.03;;
9508;SDS011;4792;50.088;8.122;2023-03-01T02:25:44;13.60;;;9.87;;
9508;SDS011;4792;50.088;8.122;2023-03-01T02:28:24;16.60;;;10.17;;
9508;SDS011;4792;50.088;8.122;2023-03-01T02:30:53;16.10;;;9.43;;
9508;SDS011;4792;50.088;8.122;2023-03-01T02:33:39;16.37;;;10.00;;
9508;SDS011;4792;50.088;8.122;2023-03-01T02:36:08;16.70;;;10.27;;
9508;SDS011;4792;50.088;8.122;2023-03-01T02:38:39;16.17;;;9.30;;
9508;SDS011;4792;50.088;8.122;2023-03-01T02:41:07;18.13;;;9.80;;
9508;SDS011;4792;50.088;8.122;2023-03-01T02:43:37;15.77;;;9.33;;
9508;SDS011;4792;50.088;8.122;2023-03-01T02:46:05;18.33;;;9.97;;
9508;SDS011;4792;50.088;8.122;2023-03-01T02:48:41;14.77;;;9.27;;
9508;SDS011;4792;50.088;8.122;2023-03-01T02:51:12;15.80;;;9.83;;
9508;SDS011;4792;50.088;8.122;2023-03-01T02:53:48;20.47;;;11.23;;
9508;SDS011;4792;50.088;8.122;2023-03-01T02:56:23;16.63;;;9.30;;
9508;SDS011;4792;50.088;8.122;2023-03-01T02:58:53;18.13;;;10.23;;
9508;SDS011;4792;50.088;8.122;2023-03-01T03:01:21;20.83;;;10.37;;
9508;SDS011;4792;50.088;8.122;2023-03-01T03:03:54;17.40;;;10.30;;
9508;SDS011;4792;50.088;8.122;2023-03-01T03:06:21;15.90;;;10.43;;
9508;SDS011;4792;50.088;8.122;2023-03-01T03:08:49;18.60;;;10.90;;
9508;SDS011;4792;50.088;8.122;2023-03-01T03:11:17;17.17;;;10.90;;
9508;SDS011;4792;50.088;8.122;2023-03-01T03:13:45;17.17;;;10.60;;
9508;SDS011;4792;50.088;8.122;2023-03-01T03:16:15;16.50;;;10.63;;
9508;SDS011;4792;50.088;8.122;2023-03-01T03:18:44;18.97;;;10.60;;
9508;SDS011;4792;50.088;8.122;2023-03-01T03:21:12;17.10;;;10.43;;
9508;SDS011;4792;50.088;8.122;2023-03-01T03:23:40;17.00;;;10.10;;
9508;SDS011;4792;50.088;8.122;2023-03-01T03:26:08;19.93;;;10.47;;
9508;SDS011;4792;50.088;8.122;2023-03-01T03:28:39;15.60;;;9.83;;
9508;SDS011;4792;50.088;8.122;2023-03-01T03:31:07;17.70;;;11.10;;
9508;SDS011;4792;50.088;8.122;2023-03-01T03:33:37;16.53;;;10.33;;
9508;SDS011;4792;50.088;8.122;2023-03-01T03:36:05;18.70;;;11.03;;
9508;SDS011;4792;50.088;8.122;2023-03-01T03:38:33;15.23;;;10.23;;
9508;SDS011;4792;50.088;8.122;2023-03-01T03:41:01;14.90;;;9.37;;
9508;SDS011;4792;50.088;8.122;2023-03-01T03:43:31;18.27;;;10.60;;
9508;SDS011;4792;50.088;8.122;2023-03-01T03:46:00;17.87;;;11.13;;
9508;SDS011;4792;50.088;8.122;2023-03-01T03:48:34;19.87;;;11.60;;
9508;SDS011;4792;50.088;8.122;2023-03-01T03:51:04;16.97;;;10.47;;
9508;SDS011;4792;50.088;8.122;2023-03-01T03:53:33;18.83;;;12.90;;
9508;SDS011;4792;50.088;8.122;2023-03-01T03:56:00;18.57;;;10.50;;
9508;SDS011;4792;50.088;8.122;2023-03-01T03:58:29;18.27;;;11.50;;
9508;SDS011;4792;50.088;8.122;2023-03-01T04:00:57;14.60;;;9.83;;
9508;SDS011;4792;50.088;8.122;2023-03-01T04:03:27;17.47;;;10.60;;
9508;SDS011;4792;50.088;8.122;2023-03-01T04:05:58;17.27;;;10.53;;
9508;SDS011;4792;50.088;8.122;2023-03-01T04:08:26;18.20;;;10.80;;
9508;SDS011;4792;50.088;8.122;2023-03-01T04:10:57;16.30;;;10.67;;
9508;SDS011;4792;50.088;8.122;2023-03-01T04:13:47;19.60;;;11.33;;
9508;SDS011;4792;50.088;8.122;2023-03-01T04:16:15;16.73;;;10.73;;
9508;SDS011;4792;50.088;8.122;2023-03-01T04:18:44;16.67;;;10.77;;
9508;SDS011;4792;50.088;8.122;2023-03-01T04:21:13;18.73;;;11.27;;
9508;SDS011;4792;50.088;8.122;2023-03-01T04:23:41;18.70;;;11.50;;
9508;SDS011;4792;50.088;8.122;2023-03-01T04:26:09;18.07;;;11.60;;
9508;SDS011;4792;50.088;8.122;2023-03-01T04:28:38;19.97;;;11.73;;
9508;SDS011;4792;50.088;8.122;2023-03-01T04:31:10;19.63;;;12.13;;
9508;SDS011;4792;50.088;8.122;2023-03-01T04:33:45;21.43;;;12.10;;
9508;SDS011;4792;50.088;8.122;2023-03-01T04:36:15;19.57;;;12.00;;
9508;SDS011;4792;50.088;8.122;2023-03-01T04:38:44;21.73;;;12.60;;
9508;SDS011;4792;50.088;8.122;2023-03-01T04:41:14;18.53;;;12.43;;
9508;SDS011;4792;50.088;8.122;2023-03-01T04:43:43;20.90;;;11.77;;
9508;SDS011;4792;50.088;8.122;2023-03-01T04:46:12;21.47;;;11.43;;
9508;SDS011;4792;50.088;8.122;2023-03-01T04:48:41;21.80;;;12.27;;
9508;SDS011;4792;50.088;8.122;2023-03-01T04:51:10;18.97;;;11.57;;
9508;SDS011;4792;50.088;8.122;2023-03-01T04:53:41;21.33;;;12.47;;
9508;SDS011;4792;50.088;8.122;2023-03-01T04:56:09;18.97;;;11.73;;
9508;SDS011;4792;50.088;8.122;2023-03-01T04:58:37;21.00;;;12.37;;
9508;SDS011;4792;50.088;8.122;2023-03-01T05:01:09;20.27;;;12.57;;
9508;SDS011;4792;50.088;8.122;2023-03-01T05:03:42;18.27;;;11.60;;
9508;SDS011;4792;50.088;8.122;2023-03-01T05:06:10;21.20;;;11.57;;
9508;SDS011;4792;50.088;8.122;2023-03-01T05:08:39;21.07;;;12.33;;
9508;SDS011;4792;50.088;8.122;2023-03-01T05:11:08;18.97;;;11.53;;
9508;SDS011;4792;50.088;8.122;2023-03-01T05:13:37;22.77;;;12.10;;
9508;SDS011;4792;50.088;8.122;2023-03-01T05:16:05;21.03;;;11.43;;
9508;SDS011;4792;50.088;8.122;2023-03-01T05:18:38;20.20;;;11.73;;
9508;SDS011;4792;50.088;8.122;2023-03-01T05:21:07;20.80;;;12.00;;
9508;SDS011;4792;50.088;8.122;2023-03-01T05:23:36;18.83;;;11.27;;
9508;SDS011;4792;50.088;8.122;2023-03-01T05:26:06;19.30;;;11.83;;
9508;SDS011;4792;50.088;8.122;2023-03-01T05:28:41;19.87;;;12.40;;
9508;SDS011;4792;50.088;8.122;2023-03-01T05:31:09;20.77;;;11.77;;
9508;SDS011;4792;50.088;8.122;2023-03-01T05:33:37;18.07;;;11.33;;
9508;SDS011;4792;50.088;8.122;2023-03-01T05:36:05;21.77;;;11.53;;
9508;SDS011;4792;50.088;8.122;2023-03-01T05:38:34;18.37;;;11.40;;
9508;SDS011;4792;50.088;8.122;2023-03-01T05:41:02;17.60;;;11.00;;
9508;SDS011;4792;50.088;8.122;2023-03-01T05:43:31;17.77;;;10.77;;
9508;SDS011;4792;50.088;8.122;2023-03-01T05:46:00;19.00;;;11.63;;
9508;SDS011;4792;50.088;8.122;2023-03-01T05:48:28;16.27;;;10.70;;
9508;SDS011;4792;50.088;8.122;2023-03-01T05:50:59;19.43;;;11.70;;
9508;SDS011;4792;50.088;8.122;2023-03-01T05:53:27;19.17;;;11.60;;
9508;SDS011;4792;50.088;8.122;2023-03-01T05:55:55;19.53;;;11.47;;
9508;SDS011;4792;50.088;8.122;2023-03-01T05:58:22;21.77;;;11.30;;
9508;SDS011;4792;50.088;8.122;2023-03-01T06:00:52;18.13;;;11.37;;
9508;SDS011;4792;50.088;8.122;2023-03-01T06:03:22;19.20;;;11.10;;
9508;SDS011;4792;50.088;8.122;2023-03-01T06:05:50;16.03;;;10.80;;
9508;SDS011;4792;50.088;8.122;2023-03-01T06:08:23;18.57;;;10.50;;
9508;SDS011;4792;50.088;8.122;2023-03-01T06:10:52;19.63;;;11.30;;
9508;SDS011;4792;50.088;8.122;2023-03-01T06:13:20;16.73;;;10.80;;
9508;SDS011;4792;50.088;8.122;2023-03-01T06:15:49;18.23;;;11.83;;
9508;SDS011;4792;50.088;8.122;2023-03-01T06:18:19;17.63;;;11.03;;
9508;SDS011;4792;50.088;8.122;2023-03-01T06:20:52;19.60;;;11.33;;
9508;SDS011;4792;50.088;8.122;2023-03-01T06:23:20;18.30;;;10.57;;
9508;SDS011;4792;50.088;8.122;2023-03-01T06:25:48;15.80;;;10.27;;
9508;SDS011;4792;50.088;8.122;2023-03-01T06:28:16;19.60;;;11.83;;
9508;SDS011;4792;50.088;8.122;2023-03-01T06:30:44;18.00;;;11.73;;
9508;SDS011;4792;50.088;8.122;2023-03-01T06:33:12;16.53;;;10.97;;
9508;SDS011;4792;50.088;8.122;2023-03-01T06:35:41;19.77;;;11.20;;
9508;SDS011;4792;50.088;8.122;2023-03-01T06:38:09;19.20;;;11.27;;
9508;SDS011;4792;50.088;8.122;2023-03-01T06:40:37;17.17;;;10.83;;
9508;SDS011;4792;50.088;8.122;2023-03-01T06:43:05;19.63;;;11.00;;
9508;SDS011;4792;50.088;8.122;2023-03-01T06:45:33;20.37;;;11.47;;
9508;SDS011;4792;50.088;8.122;2023-03-01T06:48:01;15.97;;;9.53;;
9508;SDS011;4792;50.088;8.122;2023-03-01T06:50:30;21.57;;;11.07;;
9508;SDS011;4792;50.088;8.122;2023-03-01T06:53:00;16.73;;;10.73;;
9508;SDS011;4792;50.088;8.122;2023-03-01T06:55:28;17.07;;;10.83;;
9508;SDS011;4792;50.088;8.122;2023-03-01T06:57:56;15.63;;;10.30;;
9508;SDS011;4792;50.088;8.122;2023-03-01T07:00:25;16.63;;;10.53;;
9508;SDS011;4792;50.088;8.122;2023-03-01T07:02:53;16.40;;;10.00;;
9508;SDS011;4792;50.088;8.122;2023-03-01T07:05:22;17.13;;;10.33;;
9508;SDS011;4792;50.088;8.122;2023-03-01T07:07:49;18.43;;;11.27;;
9508;SDS011;4792;50.088;8.122;2023-03-01T07:10:19;16.80;;;10.30;;
9508;SDS011;4792;50.088;8.122;2023-03-01T07:12:46;19.23;;;10.07;;
9508;SDS011;4792;50.088;8.122;2023-03-01T07:15:14;16.33;;;9.17;;
9508;SDS011;4792;50.088;8.122;2023-03-01T07:17:42;15.67;;;10.37;;
9508;SDS011;4792;50.088;8.122;2023-03-01T07:20:11;16.60;;;10.33;;
9508;SDS011;4792;50.088;8.122;2023-03-01T07:22:39;15.87;;;9.47;;
9508;SDS011;4792;50.088;8.122;2023-03-01T07:25:08;19.83;;;10.20;;
9508;SDS011;4792;50.088;8.122;2023-03-01T07:27:38;14.30;;;9.67;;
9508;SDS011;4792;50.088;8.122;2023-03-01T07:30:07;15.37;;;9.87;;
9508;SDS011;4792;50.088;8.122;2023-03-01T07:32:35;32.27;;;16.53;;
9508;SDS011;4792;50.088;8.122;2023-03-01T07:35:03;15.17;;;9.90;;
9508;SDS011;4792;50.088;8.122;2023-03-01T07:37:32;17.17;;;9.73;;
9508;SDS011;4792;50.088;8.122;2023-03-01T07:40:00;16.93;;;9.70;;
9508;SDS011;4792;50.088;8.122;2023-03-01T07:42:28;15.23;;;10.37;;
9508;SDS011;4792;50.088;8.122;2023-03-01T07:44:57;15.90;;;9.80;;
9508;SDS011;4792;50.088;8.122;2023-03-01T07:47:24;14.87;;;8.90;;
9508;SDS011;4792;50.088;8.122;2023-03-01T07:49:52;17.60;;;9.87;;
9508;SDS011;4792;50.088;8.122;2023-03-01T07:52:20;17.43;;;9.80;;
9508;SDS011;4792;50.088;8.122;2023-03-01T07:54:48;15.73;;;9.50;;
9508;SDS011;4792;50.088;8.122;2023-03-01T07:57:16;15.43;;;9.70;;
9508;SDS011;4792;50.088;8.122;2023-03-01T07:59:43;17.27;;;9.87;;
9508;SDS011;4792;50.088;8.122;2023-03-01T08:02:13;18.40;;;10.27;;
9508;SDS011;4792;50.088;8.122;2023-03-01T08:04:42;19.00;;;9.53;;
9508;SDS011;4792;50.088;8.122;2023-03-01T08:07:09;14.73;;;10.10;;
9508;SDS011;4792;50.088;8.122;2023-03-01T08:09:37;14.80;;;9.63;;
9508;SDS011;4792;50.088;8.122;2023-03-01T08:12:05;17.30;;;10.10;;
9508;SDS011;4792;50.088;8.122;2023-03-01T08:14:33;16.70;;;10.00;;
9508;SDS011;4792;50.088;8.122;2023-03-01T08:17:01;16.60;;;10.20;;
9508;SDS011;4792;50.088;8.122;2023-03-01T08:19:31;17.50;;;10.40;;
9508;SDS011;4792;50.088;8.122;2023-03-01T08:22:00;18.83;;;10.27;;
9508;SDS011;4792;50.088;8.122;2023-03-01T08:24:29;17.33;;;9.33;;
9508;SDS011;4792;50.088;8.122;2023-03-01T08:26:56;18.23;;;10.33;;
9508;SDS011;4792;50.088;8.122;2023-03-01T08:29:24;16.37;;;10.33;;
9508;SDS011;4792;50.088;8.122;2023-03-01T08:31:52;15.73;;;9.97;;
9508;SDS011;4792;50.088;8.122;2023-03-01T08:34:20;17.47;;;10.10;;
9508;SDS011;4792;50.088;8.122;2023-03-01T08:36:49;14.23;;;10.63;;
9508;SDS011;4792;50.088;8.122;2023-03-01T08:39:19;17.77;;;11.03;;
9508;SDS011;4792;50.088;8.122;2023-03-01T08:41:47;16.50;;;10.63;;
9508;SDS011;4792;50.088;8.122;2023-03-01T08:44:15;14.73;;;9.57;;
9508;SDS011;4792;50.088;8.122;2023-03-01T08:46:44;15.67;;;9.73;;
9508;SDS011;4792;50.088;8.122;2023-03-01T08:49:13;20.17;;;10.03;;
9508;SDS011;4792;50.088;8.122;2023-03-01T08:51:42;18.57;;;10.90;;
9508;SDS011;4792;50.088;8.122;2023-03-01T08:54:12;17.10;;;9.83;;
9508;SDS011;4792;50.088;8.122;2023-03-01T08:56:41;15.53;;;10.10;;
9508;SDS011;4792;50.088;8.122;2023-03-01T08:59:09;17.00;;;10.30;;
9508;SDS011;4792;50.088;8.122;2023-03-01T09:01:37;18.10;;;9.80;;
9508;SDS011;4792;50.088;8.122;2023-03-01T09:04:06;16.87;;;10.83;;
9508;SDS011;4792;50.088;8.122;2023-03-01T09:06:33;17.10;;;11.10;;
9508;SDS011;4792;50.088;8.122;2023-03-01T09:09:02;14.90;;;10.10;;
9508;SDS011;4792;50.088;8.122;2023-03-01T09:11:32;18.80;;;10.77;;
9508;SDS011;4792;50.088;8.122;2023-03-01T09:14:00;17.53;;;10.87;;
9508;SDS011;4792;50.088;8.122;2023-03-01T09:16:28;18.63;;;11.50;;
9508;SDS011;4792;50.088;8.122;2023-03-01T09:19:02;17.80;;;11.13;;
9508;SDS011;4792;50.088;8.122;2023-03-01T09:21:31;14.03;;;9.80;;
9508;SDS011;4792;50.088;8.122;2023-03-01T09:24:06;17.23;;;11.43;;
9508;SDS011;4792;50.088;8.122;2023-03-01T09:26:35;20.77;;;11.37;;
9508;SDS011;4792;50.088;8.122;2023-03-01T09:29:03;17.50;;;11.47;;
9508;SDS011;4792;50.088;8.122;2023-03-01T09:31:31;16.23;;;11.17;;
9508;SDS011;4792;50.088;8.122;2023-03-01T09:33:59;15.50;;;10.80;;
9508;SDS011;4792;50.088;8.122;2023-03-01T09:36:27;19.00;;;11.50;;
9508;SDS011;4792;50.088;8.122;2023-03-01T09:38:55;19.83;;;11.83;;
9508;SDS011;4792;50.088;8.122;2023-03-01T09:41:38;17.33;;;10.80;;
9508;SDS011;4792;50.088;8.122;2023-03-01T09:44:13;17.97;;;11.27;;
9508;SDS011;4792;50.088;8.122;2023-03-01T09:46:55;16.10;;;11.30;;
9508;SDS011;4792;50.088;8.122;2023-03-01T09:49:24;17.20;;;12.43;;
9508;SDS011;4792;50.088;8.122;2023-03-01T09:51:58;15.63;;;11.77;;
9508;SDS011;4792;50.088;8.122;2023-03-01T09:54:28;19.17;;;12.20;;
9508;SDS011;4792;50.088;8.122;2023-03-01T09:57:09;18.00;;;11.80;;
9508;SDS011;4792;50.088;8.122;2023-03-01T09:59:55;18.00;;;11.37;;
9508;SDS011;4792;50.088;8.122;2023-03-01T10:02:33;16.30;;;11.47;;
9508;SDS011;4792;50.088;8.122;2023-03-01T10:05:12;17.27;;;11.90;;
9508;SDS011;4792;50.088;8.122;2023-03-01T10:07:47;18.17;;;12.87;;
9508;SDS011;4792;50.088;8.122;2023-03-01T10:10:23;20.70;;;12.80;;
9508;SDS011;4792;50.088;8.122;2023-03-01T10:12:55;16.70;;;11.80;;
9508;SDS011;4792;50.088;8.122;2023-03-01T10:15:25;19.63;;;12.07;;
9508;SDS011;4792;50.088;8.122;2023-03-01T10:18:01;15.03;;;10.97;;
9508;SDS011;4792;50.088;8.122;2023-03-01T10:20:35;17.57;;;11.40;;
9508;SDS011;4792;50.088;8.122;2023-03-01T10:23:08;17.03;;;11.80;;
9508;SDS011;4792;50.088;8.122;2023-03-01T10:25:40;19.23;;;11.60;;
9508;SDS011;4792;50.088;8.122;2023-03-01T10:28:16;16.83;;;11.13;;
9508;SDS011;4792;50.088;8.122;2023-03-01T10:30:45;17.47;;;11.10;;
9508;SDS011;4792;50.088;8.122;2023-03-01T10:33:14;18.00;;;11.00;;
9508;SDS011;4792;50.088;8.122;2023-03-01T10:35:45;22.97;;;11.40;;
9508;SDS011;4792;50.088;8.122;2023-03-01T10:38:14;20.87;;;10.93;;
9508;SDS011;4792;50.088;8.122;2023-03-01T10:40:53;21.43;;;12.60;;
9508;SDS011;4792;50.088;8.122;2023-03-01T10:43:24;16.83;;;11.53;;
9508;SDS011;4792;50.088;8.122;2023-03-01T10:45:53;17.10;;;11.37;;
9508;SDS011;4792;50.088;8.122;2023-03-01T10:48:22;15.00;;;10.97;;
9508;SDS011;4792;50.088;8.122;2023-03-01T10:51:03;17.33;;;11.60;;
9508;SDS011;4792;50.088;8.122;2023-03-01T10:53:33;15.50;;;11.07;;
9508;SDS011;4792;50.088;8.122;2023-03-01T10:56:03;14.43;;;10.57;;
9508;SDS011;4792;50.088;8.122;2023-03-01T10:58:34;14.13;;;10.03;;
9508;SDS011;4792;50.088;8.122;2023-03-01T11:01:04;17.90;;;11.13;;
9508;SDS011;4792;50.088;8.122;2023-03-01T11:03:34;18.27;;;10.53;;
9508;SDS011;4792;50.088;8.122;2023-03-01T11:06:04;13.50;;;10.13;;
9508;SDS011;4792;50.088;8.122;2023-03-01T11:08:34;13.37;;;9.87;;
9508;SDS011;4792;50.088;8.122;2023-03-01T11:11:12;17.87;;;10.77;;
9508;SDS011;4792;50.088;8.122;2023-03-01T11:13:49;16.00;;;11.23;;
9508;SDS011;4792;50.088;8.122;2023-03-01T11:16:26;19.33;;;10.23;;
9508;SDS011;4792;50.088;8.122;2023-03-01T11:18:56;15.77;;;10.23;;
9508;SDS011;4792;50.088;8.122;2023-03-01T11:21:25;14.67;;;10.83;;
9508;SDS011;4792;50.088;8.122;2023-03-01T11:23:54;16.70;;;10.60;;
9508;SDS011;4792;50.088;8.122;2023-03-01T11:26:22;15.20;;;9.83;;
9508;SDS011;4792;50.088;8.122;2023-03-01T11:28:54;14.23;;;9.97;;
9508;SDS011;4792;50.088;8.122;2023-03-01T11:31:24;16.77;;;11.47;;
9508;SDS011;4792;50.088;8.122;2023-03-01T11:33:54;15.90;;;10.20;;
9508;SDS011;4792;50.088;8.122;2023-03-01T11:36:25;15.07;;;10.27;;
9508;SDS011;4792;50.088;8.122;2023-03-01T11:38:57;13.97;;;9.90;;
9508;SDS011;4792;50.088;8.122;2023-03-01T11:41:30;18.33;;;11.60;;
9508;SDS011;4792;50.088;8.122;2023-03-01T11:44:02;11.93;;;9.50;;
9508;SDS011;4792;50.088;8.122;2023-03-01T11:46:43;15.90;;;10.97;;
9508;SDS011;4792;50.088;8.122;2023-03-01T11:52:36;17.00;;;11.43;;
9508;SDS011;4792;50.088;8.122;2023-03-01T11:55:22;14.87;;;10.83;;
9508;SDS011;4792;50.088;8.122;2023-03-01T11:57:59;13.70;;;10.23;;
9508;SDS011;4792;50.088;8.122;2023-03-01T12:00:53;13.20;;;10.40;;
9508;SDS011;4792;50.088;8.122;2023-03-01T12:03:33;13.57;;;9.73;;
9508;SDS011;4792;50.088;8.122;2023-03-01T12:06:18;17.57;;;10.27;;
9508;SDS011;4792;50.088;8.122;2023-03-01T12:09:11;14.13;;;9.20;;
9508;SDS011;4792;50.088;8.122;2023-03-01T12:11:49;23.43;;;11.87;;
9508;SDS011;4792;50.088;8.122;2023-03-01T12:14:35;16.13;;;10.53;;
9508;SDS011;4792;50.088;8.122;2023-03-01T12:20:23;12.53;;;9.50;;
9508;SDS011;4792;50.088;8.122;2023-03-01T12:25:55;15.20;;;9.67;;
9508;SDS011;4792;50.088;8.122;2023-03-01T12:28:36;15.17;;;9.67;;
9508;SDS011;4792;50.088;8.122;2023-03-01T12:34:06;12.47;;;9.27;;
9508;SDS011;4792;50.088;8.122;2023-03-01T12:36:44;12.53;;;8.60;;
9508;SDS011;4792;50.088;8.122;2023-03-01T12:39:25;10.03;;;7.93;;
9508;SDS011;4792;50.088;8.122;2023-03-01T12:42:03;11.63;;;7.50;;
9508;SDS011;4792;50.088;8.122;2023-03-01T12:44:37;11.27;;;8.13;;
9508;SDS011;4792;50.088;8.122;2023-03-01T12:47:26;11.20;;;8.00;;
9508;SDS011;4792;50.088;8.122;2023-03-01T12:50:05;13.13;;;8.10;;
9508;SDS011;4792;50.088;8.122;2023-03-01T12:52:41;10.93;;;7.67;;
9508;SDS011;4792;50.088;8.122;2023-03-01T12:55:17;10.70;;;7.57;;
9508;SDS011;4792;50.088;8.122;2023-03-01T12:57:57;8.83;;;6.67;;
9508;SDS011;4792;50.088;8.122;2023-03-01T13:00:31;10.90;;;7.43;;
9508;SDS011;4792;50.088;8.122;2023-03-01T13:03:02;9.40;;;7.33;;
9508;SDS011;4792;50.088;8.122;2023-03-01T13:05:42;13.50;;;7.53;;
9508;SDS011;4792;50.088;8.122;2023-03-01T13:08:16;10.37;;;7.70;;
9508;SDS011;4792;50.088;8.122;2023-03-01T13:10:48;10.63;;;7.90;;
9508;SDS011;4792;50.088;8.122;2023-03-01T13:13:20;9.13;;;7.10;;
9508;SDS011;4792;50.088;8.122;2023-03-01T13:15:49;14.07;;;8.23;;
9508;SDS011;4792;50.088;8.122;2023-03-01T13:18:28;12.30;;;7.93;;
9508;SDS011;4792;50.088;8.122;2023-03-01T13:21:04;10.83;;;8.07;;
9508;SDS011;4792;50.088;8.122;2023-03-01T13:23:33;14.33;;;7.97;;
9508;SDS011;4792;50.088;8.122;2023-03-01T13:26:06;9.77;;;7.20;;
9508;SDS011;4792;50.088;8.122;2023-03-01T13:28:48;9.07;;;7.37;;
9508;SDS011;4792;50.088;8.122;2023-03-01T13:37:26;8.67;;;7.00;;
9508;SDS011;4792;50.088;8.122;2023-03-01T13:39:58;10.10;;;7.87;;
9508;SDS011;4792;50.088;8.122;2023-03-01T13:42:32;11.47;;;8.43;;
9508;SDS011;4792;50.088;8.122;2023-03-01T13:45:12;10.20;;;7.53;;
9508;SDS011;4792;50.088;8.122;2023-03-01T13:47:47;13.87;;;8.73;;
9508;SDS011;4792;50.088;8.122;2023-03-01T13:50:18;11.40;;;8.50;;
9508;SDS011;4792;50.088;8.122;2023-03-01T13:52:50;12.20;;;8.40;;
9508;SDS011;4792;50.088;8.122;2023-03-01T13:55:21;10.63;;;8.37;;
9508;SDS011;4792;50.088;8.122;2023-03-01T13:57:53;9.70;;;7.50;;
9508;SDS011;4792;50.088;8.122;2023-03-01T14:00:25;12.13;;;8.23;;
9508;SDS011;4792;50.088;8.122;2023-03-01T14:05:58;12.03;;;8.30;;
9508;SDS011;4792;50.088;8.122;2023-03-01T14:08:42;12.37;;;7.83;;
9508;SDS011;4792;50.088;8.122;2023-03-01T14:11:20;13.23;;;7.97;;
9508;SDS011;4792;50.088;8.122;2023-03-01T14:14:01;10.10;;;7.70;;
9508;SDS011;4792;50.088;8.122;2023-03-01T14:16:46;10.43;;;7.60;;
9508;SDS011;4792;50.088;8.122;2023-03-01T14:19:18;10.07;;;8.03;;
9508;SDS011;4792;50.088;8.122;2023-03-01T14:21:59;10.47;;;8.20;;
9508;SDS011;4792;50.088;8.122;2023-03-01T14:24:32;10.97;;;7.73;;
9508;SDS011;4792;50.088;8.122;2023-03-01T14:27:01;14.57;;;7.43;;
9508;SDS011;4792;50.088;8.122;2023-03-01T14:29:33;9.60;;;7.83;;
9508;SDS011;4792;50.088;8.122;2023-03-01T14:32:08;25.90;;;9.23;;
9508;SDS011;4792;50.088;8.122;2023-03-01T14:34:42;10.13;;;7.87;;
9508;SDS011;4792;50.088;8.122;2023-03-01T14:37:11;10.17;;;7.73;;
9508;SDS011;4792;50.088;8.122;2023-03-01T14:39:47;13.30;;;7.13;;
9508;SDS011;4792;50.088;8.122;2023-03-01T14:42:15;13.07;;;7.37;;
9508;SDS011;4792;50.088;8.122;2023-03-01T14:44:43;11.20;;;7.23;;
9508;SDS011;4792;50.088;8.122;2023-03-01T14:47:14;10.93;;;8.07;;
9508;SDS011;4792;50.088;8.122;2023-03-01T14:49:43;12.73;;;7.40;;
9508;SDS011;4792;50.088;8.122;2023-03-01T14:52:18;12.17;;;7.87;;
9508;SDS011;4792;50.088;8.122;2023-03-01T14:54:50;11.93;;;8.57;;
9508;SDS011;4792;50.088;8.122;2023-03-01T14:57:20;10.50;;;7.63;;
9508;SDS011;4792;50.088;8.122;2023-03-01T14:59:49;15.23;;;8.00;;
9508;SDS011;4792;50.088;8.122;2023-03-01T15:02:19;9.50;;;7.93;;
9508;SDS011;4792;50.088;8.122;2023-03-01T15:04:49;9.93;;;7.60;;
9508;SDS011;4792;50.088;8.122;2023-03-01T15:07:19;11.03;;;7.73;;
9508;SDS011;4792;50.088;8.122;2023-03-01T15:09:48;10.27;;;7.50;;
9508;SDS011;4792;50.088;8.122;2023-03-01T15:12:34;12.70;;;8.57;;
9508;SDS011;4792;50.088;8.122;2023-03-01T15:17:50;10.73;;;7.70;;
9508;SDS011;4792;50.088;8.122;2023-03-01T15:20:22;10.70;;;7.17;;
9508;SDS011;4792;50.088;8.122;2023-03-01T15:22:54;9.40;;;7.43;;
9508;SDS011;4792;50.088;8.122;2023-03-01T15:25:24;11.73;;;8.33;;
9508;SDS011;4792;50.088;8.122;2023-03-01T15:27:54;11.53;;;7.83;;
9508;SDS011;4792;50.088;8.122;2023-03-01T15:30:23;10.93;;;7.00;;
9508;SDS011;4792;50.088;8.122;2023-03-01T15:36:01;11.17;;;7.67;;
9508;SDS011;4792;50.088;8.122;2023-03-01T15:38:33;10.23;;;7.77;;
9508;SDS011;4792;50.088;8.122;2023-03-01T15:41:19;11.47;;;7.87;;
9508;SDS011;4792;50.088;8.122;2023-03-01T15:43:49;11.90;;;8.03;;
9508;SDS011;4792;50.088;8.122;2023-03-01T15:46:22;10.20;;;7.47;;